createdAt,value
2022-08-22T00:00:18.992Z,17.90
2022-08-22T00:02:46.809Z,19.20
2022-08-22T00:02:52.599Z,20.90
2022-08-22T00:02:56.069Z,21.30
2022-08-22T00:03:06.993Z,18.10
2022-08-22T00:03:30.083Z,17.80
2022-08-22T00:06:41.733Z,17.80
2022-08-22T00:10:02.538Z,17.70
2022-08-22T00:12:44.656Z,17.70
2022-08-22T00:15:42.029Z,17.70
2022-08-22T00:18:27.781Z,17.60
2022-08-22T00:21:28.060Z,17.50
2022-08-22T00:24:22.812Z,17.50
2022-08-22T00:27:32.997Z,17.50
2022-08-22T00:30:16.384Z,17.50
2022-08-22T00:32:52.854Z,17.30
2022-08-22T00:35:32.343Z,17.20
2022-08-22T00:38:29.148Z,17.20
2022-08-22T00:41:25.586Z,17.20
2022-08-22T00:44:15.283Z,17.30
2022-08-22T00:47:01.968Z,17.30
2022-08-22T00:50:00.918Z,17.10
2022-08-22T00:53:12.208Z,17.00
2022-08-22T00:56:22.580Z,17.10
2022-08-22T00:59:26.053Z,17.20
2022-08-22T01:02:16.862Z,17.20
2022-08-22T01:05:22.714Z,17.20
2022-08-22T01:08:18.175Z,17.20
2022-08-22T01:11:24.029Z,17.20
2022-08-22T01:14:34.886Z,16.90
2022-08-22T01:17:40.768Z,16.90
2022-08-22T01:20:42.122Z,17.00
2022-08-22T01:23:47.772Z,16.90
2022-08-22T01:27:10.854Z,17.00
2022-08-22T01:30:18.212Z,16.90
2022-08-22T01:33:34.409Z,16.80
2022-08-22T01:37:06.143Z,16.60
2022-08-22T02:04:30.818Z,16.00
2022-08-22T02:07:34.185Z,16.10
2022-08-22T02:16:21.768Z,16.00
2022-08-22T02:19:05.943Z,16.00
2022-08-22T02:22:00.040Z,16.00
2022-08-22T02:25:13.591Z,16.00
2022-08-22T02:28:12.506Z,16.00
2022-08-22T02:31:24.790Z,15.90
2022-08-22T02:34:01.268Z,15.90
2022-08-22T02:36:52.389Z,15.80
2022-08-22T02:39:48.600Z,15.90
2022-08-22T02:42:39.959Z,15.80
2022-08-22T02:45:25.119Z,15.70
2022-08-22T02:48:27.655Z,15.60
2022-08-22T02:51:05.929Z,15.50
2022-08-22T02:53:50.472Z,15.60
2022-08-22T02:56:35.838Z,15.50
2022-08-22T02:59:47.561Z,15.50
2022-08-22T03:02:54.660Z,15.50
2022-08-22T03:05:45.327Z,15.40
2022-08-22T03:08:23.190Z,15.40
2022-08-22T03:11:23.572Z,15.30
2022-08-22T03:14:31.133Z,15.30
2022-08-22T03:17:10.932Z,15.20
2022-08-22T03:19:58.401Z,15.20
2022-08-22T03:22:56.451Z,15.10
2022-08-22T03:26:07.756Z,15.00
2022-08-22T03:29:06.763Z,15.00
2022-08-22T03:31:35.897Z,15.00
2022-08-22T03:34:22.951Z,15.00
2022-08-22T03:37:46.219Z,15.00
2022-08-22T03:40:46.186Z,14.90
2022-08-22T03:43:49.482Z,14.90
2022-08-22T03:46:53.485Z,14.90
2022-08-22T03:50:12.768Z,14.90
2022-08-22T03:53:21.924Z,14.80
2022-08-22T03:56:25.749Z,14.70
2022-08-22T03:59:34.978Z,14.80
2022-08-22T04:27:20.261Z,14.50
2022-08-22T04:33:37.920Z,14.50
2022-08-22T04:36:31.115Z,14.50
2022-08-22T04:39:36.567Z,14.50
2022-08-22T04:42:31.706Z,14.50
2022-08-22T04:45:22.439Z,14.50
2022-08-22T04:48:31.431Z,14.50
2022-08-22T04:51:05.920Z,14.70
2022-08-22T04:54:04.901Z,14.60
2022-08-22T04:57:19.576Z,14.60
2022-08-22T04:59:47.371Z,14.60
2022-08-22T05:02:23.382Z,14.60
2022-08-22T05:04:59.543Z,14.60
2022-08-22T05:07:36.070Z,14.60
2022-08-22T05:10:12.340Z,14.70
2022-08-22T05:12:49.554Z,14.80
2022-08-22T05:15:23.844Z,14.90
2022-08-22T05:17:54.256Z,14.80
2022-08-22T05:20:25.605Z,14.80
2022-08-22T05:23:02.302Z,14.90
2022-08-22T05:25:36.323Z,14.90
2022-08-22T05:28:21.073Z,15.10
2022-08-22T05:30:48.902Z,15.30
2022-08-22T05:33:43.474Z,15.30
2022-08-22T05:36:21.426Z,15.30
2022-08-22T05:39:06.898Z,15.30
2022-08-22T05:41:37.550Z,15.30
2022-08-22T05:44:13.350Z,15.40
2022-08-22T05:47:41.140Z,15.50
2022-08-22T05:50:51.107Z,15.70
2022-08-22T05:53:41.717Z,15.80
2022-08-22T05:56:22.205Z,15.90
2022-08-22T05:59:02.830Z,15.90
2022-08-22T06:02:10.023Z,15.90
2022-08-22T06:04:51.856Z,16.10
2022-08-22T06:07:56.389Z,16.20
2022-08-22T06:10:48.061Z,16.20
2022-08-22T06:13:41.432Z,16.30
2022-08-22T06:16:21.480Z,16.20
2022-08-22T06:18:50.853Z,16.20
2022-08-22T06:21:38.576Z,16.30
2022-08-22T06:27:31.308Z,16.60
2022-08-22T06:30:01.658Z,16.70
2022-08-22T06:32:59.435Z,16.80
2022-08-22T06:36:11.514Z,16.80
2022-08-22T06:39:31.549Z,16.90
2022-08-22T06:42:05.925Z,17.10
2022-08-22T06:47:53.561Z,17.20
2022-08-22T06:50:42.645Z,17.30
2022-08-22T06:53:34.748Z,17.40
2022-08-22T06:56:05.472Z,17.50
2022-08-22T06:58:55.455Z,17.50
2022-08-22T07:01:27.781Z,17.80
2022-08-22T07:04:00.362Z,18.00
2022-08-22T07:06:35.979Z,18.30
2022-08-22T07:09:05.708Z,18.20
2022-08-22T07:11:39.902Z,18.10
2022-08-22T07:14:11.639Z,18.20
2022-08-22T07:16:52.411Z,18.30
2022-08-22T07:19:53.681Z,18.50
2022-08-22T07:22:28.703Z,18.60
2022-08-22T07:25:14.600Z,18.70
2022-08-22T07:28:21.583Z,18.80
2022-08-22T07:31:35.095Z,19.00
2022-08-22T07:34:37.754Z,19.20
2022-08-22T07:38:00.802Z,19.20
2022-08-22T07:41:11.017Z,19.40
2022-08-22T07:43:51.917Z,19.60
2022-08-22T07:46:41.978Z,19.80
2022-08-22T07:49:21.444Z,19.80
2022-08-22T07:51:55.512Z,20.10
2022-08-22T07:54:36.326Z,20.20
2022-08-22T07:57:12.681Z,20.20
2022-08-22T07:59:48.485Z,20.40
2022-08-22T08:02:18.078Z,20.40
2022-08-22T08:04:48.499Z,20.50
2022-08-22T08:07:20.425Z,20.60
2022-08-22T08:09:53.602Z,20.70
2022-08-22T08:12:30.123Z,20.80
2022-08-22T08:14:58.867Z,21.00
2022-08-22T08:17:32.180Z,21.10
2022-08-22T08:20:06.015Z,21.20
2022-08-22T08:22:34.357Z,21.60
2022-08-22T08:25:02.698Z,21.60
2022-08-22T08:27:53.223Z,21.60
2022-08-22T08:30:34.415Z,21.80
2022-08-22T08:33:25.285Z,21.70
2022-08-22T08:36:03.048Z,21.70
2022-08-22T08:38:49.518Z,21.90
2022-08-22T08:41:58.571Z,22.20
2022-08-22T08:45:03.017Z,22.10
2022-08-22T08:47:57.919Z,22.40
2022-08-22T08:51:02.094Z,22.40
2022-08-22T08:54:04.500Z,22.80
2022-08-22T08:57:15.167Z,23.00
2022-08-22T09:00:14.743Z,23.30
2022-08-22T09:03:58.851Z,23.00
2022-08-22T09:07:13.716Z,23.00
2022-08-22T09:10:20.813Z,23.30
2022-08-22T09:13:27.489Z,23.80
2022-08-22T09:23:00.788Z,24.70
2022-08-22T09:25:50.206Z,25.10
2022-08-22T09:35:26.799Z,25.70
2022-08-22T09:38:36.987Z,25.50
2022-08-22T09:41:51.775Z,24.80
2022-08-22T09:45:05.521Z,24.90
2022-08-22T09:48:06.971Z,25.10
2022-08-22T09:51:28.796Z,25.20
2022-08-22T09:54:11.384Z,26.20
2022-08-22T09:56:55.132Z,25.50
2022-08-22T09:59:50.514Z,25.90
2022-08-22T10:02:45.574Z,26.60
2022-08-22T10:05:58.977Z,26.80
2022-08-22T10:08:50.709Z,27.30
2022-08-22T10:11:54.871Z,27.70
2022-08-22T10:14:33.723Z,27.20
2022-08-22T10:17:11.941Z,27.50
2022-08-22T10:19:52.518Z,27.80
2022-08-22T10:23:07.182Z,27.40
2022-08-22T10:25:54.225Z,27.10
2022-08-22T10:28:46.937Z,27.20
2022-08-22T10:32:14.435Z,28.00
2022-08-22T10:34:47.670Z,28.00
2022-08-22T10:37:37.281Z,28.20
2022-08-22T10:40:46.039Z,28.30
2022-08-22T10:43:56.456Z,28.60
2022-08-22T10:47:02.135Z,28.40
2022-08-22T10:50:10.717Z,28.50
2022-08-22T10:52:48.555Z,28.40
2022-08-22T10:55:24.635Z,28.00
2022-08-22T10:58:09.083Z,28.60
2022-08-22T11:00:59.805Z,28.90
2022-08-22T11:03:53.272Z,28.70
2022-08-22T11:06:48.637Z,28.90
2022-08-22T11:09:55.191Z,29.20
2022-08-22T11:12:37.360Z,28.80
2022-08-22T11:16:04.171Z,29.40
2022-08-22T11:19:14.890Z,29.10
2022-08-22T11:22:25.036Z,27.90
2022-08-22T11:53:54.217Z,30.70
2022-08-22T11:56:40.134Z,31.00
2022-08-22T11:59:29.574Z,31.70
2022-08-22T12:02:04.923Z,31.10
2022-08-22T12:04:53.345Z,31.10
2022-08-22T12:07:32.391Z,30.60
2022-08-22T12:10:13.768Z,30.80
2022-08-22T12:13:49.252Z,30.90
2022-08-22T12:17:06.278Z,31.50
2022-08-22T12:20:16.259Z,31.50
2022-08-22T12:23:43.191Z,30.70
2022-08-22T12:43:10.013Z,30.20
2022-08-22T12:46:01.649Z,31.90
2022-08-22T12:49:27.927Z,33.00
2022-08-22T12:52:34.384Z,32.20
2022-08-22T12:55:25.030Z,30.60
2022-08-22T12:58:41.806Z,32.10
2022-08-22T13:01:11.253Z,32.00
2022-08-22T13:03:55.365Z,32.00
2022-08-22T13:06:54.619Z,31.70
2022-08-22T13:09:34.067Z,31.60
2022-08-22T13:15:27.547Z,31.50
2022-08-22T13:18:08.734Z,31.80
2022-08-22T13:20:48.090Z,32.00
2022-08-22T13:23:39.875Z,31.60
2022-08-22T13:26:33.578Z,32.40
2022-08-22T13:29:27.185Z,32.40
2022-08-22T13:32:01.861Z,32.40
2022-08-22T13:34:51.190Z,32.90
2022-08-22T13:42:54.148Z,32.10
2022-08-22T13:45:27.955Z,33.30
2022-08-22T13:48:00.069Z,33.60
2022-08-22T13:50:53.064Z,33.10
2022-08-22T13:54:16.182Z,32.60
2022-08-22T13:56:56.481Z,32.50
2022-08-22T13:59:51.548Z,32.70
2022-08-22T14:02:52.580Z,33.40
2022-08-22T14:05:53.170Z,32.80
2022-08-22T14:08:36.547Z,32.90
2022-08-22T14:11:28.907Z,32.70
2022-08-22T14:14:01.258Z,33.10
2022-08-22T14:16:40.116Z,33.40
2022-08-22T14:19:11.491Z,32.60
2022-08-22T14:21:50.720Z,32.40
2022-08-22T14:24:27.193Z,31.90
2022-08-22T14:26:58.505Z,33.10
2022-08-22T14:29:32.040Z,33.80
2022-08-22T14:32:35.097Z,34.90
2022-08-22T14:35:35.099Z,34.70
2022-08-22T14:38:51.788Z,33.40
2022-08-22T14:41:56.022Z,34.40
2022-08-22T14:44:37.781Z,33.20
2022-08-22T14:47:32.629Z,32.50
2022-08-22T14:50:09.559Z,32.70
2022-08-22T14:52:46.268Z,32.70
2022-08-22T14:55:26.094Z,33.10
2022-08-22T14:58:00.272Z,33.40
2022-08-22T15:00:42.408Z,32.70
2022-08-22T15:03:29.466Z,33.50
2022-08-22T15:06:29.929Z,33.20
2022-08-22T15:08:57.886Z,33.00
2022-08-22T15:11:28.401Z,32.70
2022-08-22T15:14:13.426Z,32.90
2022-08-22T15:16:46.275Z,32.70
2022-08-22T15:19:41.000Z,33.60
2022-08-22T15:22:31.784Z,33.90
2022-08-22T15:25:19.549Z,33.20
2022-08-22T15:27:54.935Z,32.20
2022-08-22T15:30:45.590Z,32.70
2022-08-22T15:33:43.348Z,32.50
2022-08-22T15:36:23.957Z,32.80
2022-08-22T15:39:30.914Z,33.40
2022-08-22T15:42:00.002Z,34.00
2022-08-22T15:44:39.231Z,35.40
2022-08-22T15:47:31.541Z,36.10
2022-08-22T15:50:17.614Z,36.60
2022-08-22T15:53:17.923Z,35.90
2022-08-22T15:56:26.142Z,35.20
2022-08-22T15:59:47.774Z,36.60
2022-08-22T16:02:41.610Z,35.80
2022-08-22T16:05:41.048Z,36.50
2022-08-22T16:08:16.703Z,35.50
2022-08-22T16:10:51.128Z,36.20
2022-08-22T16:13:48.253Z,36.30
2022-08-22T16:17:04.140Z,35.50
2022-08-22T16:19:33.918Z,35.80
2022-08-22T16:22:07.079Z,35.70
2022-08-22T16:24:59.028Z,35.10
2022-08-22T16:27:27.739Z,35.70
2022-08-22T16:30:07.939Z,35.10
2022-08-22T16:32:36.578Z,35.50
2022-08-22T16:35:04.399Z,34.90
2022-08-22T16:37:44.503Z,34.50
2022-08-22T16:40:18.630Z,34.60
2022-08-22T16:43:09.850Z,34.10
2022-08-22T16:45:41.017Z,34.60
2022-08-22T16:48:37.736Z,34.50
2022-08-22T16:51:21.318Z,34.40
2022-08-22T16:54:12.886Z,34.70
2022-08-22T16:56:54.126Z,34.40
2022-08-22T16:59:54.352Z,34.40
2022-08-22T17:02:52.402Z,33.60
2022-08-22T17:05:47.598Z,32.90
2022-08-22T17:08:56.508Z,32.30
2022-08-22T17:12:17.359Z,31.70
2022-08-22T17:15:20.013Z,31.50
2022-08-22T17:18:20.341Z,30.90
2022-08-22T17:21:10.084Z,29.50
2022-08-22T17:24:32.283Z,28.60
2022-08-22T17:27:27.963Z,28.00
2022-08-22T17:30:20.555Z,27.70
2022-08-22T17:33:27.998Z,27.30
2022-08-22T17:36:26.881Z,27.00
2022-08-22T17:39:32.294Z,26.60
2022-08-22T17:42:39.095Z,26.30
2022-08-22T17:48:15.018Z,25.40
2022-08-22T18:11:50.755Z,23.60
2022-08-22T18:17:47.177Z,23.10
2022-08-22T18:20:23.900Z,23.00
2022-08-22T18:22:56.940Z,22.80
2022-08-22T18:25:36.729Z,22.70
2022-08-22T18:28:25.294Z,22.60
2022-08-22T18:31:02.640Z,22.50
2022-08-22T18:33:45.645Z,22.40
2022-08-22T18:36:50.398Z,22.40
2022-08-22T18:39:29.135Z,22.30
2022-08-22T18:42:43.935Z,22.30
2022-08-22T18:46:06.401Z,22.10
2022-08-22T18:49:05.368Z,22.00
2022-08-22T18:51:38.435Z,21.80
2022-08-22T18:54:34.662Z,21.90
2022-08-22T18:57:30.551Z,21.80
2022-08-22T19:00:21.027Z,21.70
2022-08-22T19:03:22.625Z,21.70
2022-08-22T19:06:42.479Z,21.70
2022-08-22T19:09:57.228Z,21.60
2022-08-22T19:13:22.461Z,21.50
2022-08-22T19:16:31.552Z,21.50
2022-08-22T19:19:53.067Z,21.40
2022-08-22T19:22:29.609Z,21.40
2022-08-22T19:25:19.813Z,21.40
2022-08-22T19:28:26.779Z,21.30
2022-08-22T19:31:42.610Z,21.20
2022-08-22T19:34:22.115Z,21.20
2022-08-22T19:37:32.532Z,21.20
2022-08-22T19:40:10.128Z,21.30
2022-08-22T19:42:41.575Z,21.20
2022-08-22T19:45:25.782Z,21.10
2022-08-22T19:48:11.694Z,21.00
2022-08-22T19:50:41.539Z,20.90
2022-08-22T19:53:40.088Z,20.80
2022-08-22T19:56:38.594Z,20.80
2022-08-22T19:59:35.199Z,20.90
2022-08-22T20:02:35.728Z,20.90
2022-08-22T20:05:44.130Z,20.90
2022-08-22T20:09:02.090Z,20.90
2022-08-22T20:11:59.377Z,20.90
2022-08-22T20:14:32.416Z,20.90
2022-08-22T20:18:11.650Z,20.90
2022-08-22T20:20:54.622Z,20.80
2022-08-22T20:23:29.647Z,20.70
2022-08-22T20:25:57.861Z,20.70
2022-08-22T20:28:52.469Z,20.70
2022-08-22T20:31:23.564Z,20.70
2022-08-22T20:34:05.038Z,20.80
2022-08-22T20:36:32.532Z,20.70
2022-08-22T20:39:07.968Z,20.70
2022-08-22T20:41:45.315Z,20.70
2022-08-22T20:44:33.240Z,20.80
2022-08-22T20:47:10.129Z,20.80
2022-08-22T20:49:58.490Z,20.60
2022-08-22T20:52:54.549Z,20.60
2022-08-22T20:55:31.943Z,20.40
2022-08-22T20:58:03.411Z,20.50
2022-08-22T21:00:47.591Z,20.50
2022-08-22T21:03:48.400Z,20.50
2022-08-22T21:06:21.090Z,20.50
2022-08-22T21:09:11.893Z,20.60
2022-08-22T21:11:50.374Z,20.60
2022-08-22T21:14:22.548Z,20.50
2022-08-22T21:16:50.382Z,20.50
2022-08-22T21:19:20.346Z,20.50
2022-08-22T21:21:47.828Z,20.40
2022-08-22T21:24:15.123Z,20.40
2022-08-22T21:27:02.273Z,20.40
2022-08-22T21:29:42.064Z,20.50
2022-08-22T21:32:39.164Z,20.40
2022-08-22T21:35:19.539Z,20.30
2022-08-22T21:37:47.350Z,20.20
2022-08-22T21:40:21.535Z,20.10
2022-08-22T21:43:10.301Z,20.10
2022-08-22T21:45:44.680Z,20.00
2022-08-22T21:48:36.379Z,19.90
2022-08-22T21:51:31.798Z,19.90
2022-08-22T21:54:47.309Z,19.80
2022-08-22T21:57:18.051Z,19.80
2022-08-22T21:59:52.110Z,19.80
2022-08-22T22:02:44.701Z,19.90
2022-08-22T22:05:14.367Z,20.00
2022-08-22T22:07:45.780Z,19.90
2022-08-22T22:10:16.225Z,19.90
2022-08-22T22:12:45.084Z,19.90
2022-08-22T22:15:17.047Z,19.90
2022-08-22T22:17:44.210Z,19.90
2022-08-22T22:20:12.814Z,19.90
2022-08-22T22:22:45.801Z,20.00
2022-08-22T22:25:40.998Z,20.00
2022-08-22T22:28:17.315Z,19.90
2022-08-22T22:30:46.062Z,19.90
2022-08-22T22:33:13.077Z,19.90
2022-08-22T22:35:40.831Z,20.00
2022-08-22T22:38:08.586Z,20.10
2022-08-22T22:40:36.171Z,20.10
2022-08-22T22:43:03.985Z,20.10
2022-08-22T22:45:31.042Z,20.20
2022-08-22T22:47:58.214Z,20.20
2022-08-22T22:50:25.476Z,20.20
2022-08-22T22:52:54.065Z,20.20
2022-08-22T22:55:24.842Z,20.10
2022-08-22T22:57:58.893Z,20.10
2022-08-22T23:00:31.465Z,20.00
2022-08-22T23:03:04.136Z,20.00
2022-08-22T23:05:32.515Z,19.90
2022-08-22T23:08:00.567Z,19.80
2022-08-22T23:10:29.692Z,19.70
2022-08-22T23:12:56.721Z,19.60
2022-08-22T23:15:23.736Z,19.60
2022-08-22T23:17:51.242Z,19.60
2022-08-22T23:20:18.745Z,19.50
2022-08-22T23:22:46.250Z,19.50
2022-08-22T23:25:13.725Z,19.40
2022-08-22T23:27:40.915Z,19.50
2022-08-22T23:30:09.250Z,19.40
2022-08-22T23:32:55.913Z,19.40
2022-08-22T23:35:23.138Z,19.50
2022-08-22T23:37:50.106Z,19.50
2022-08-22T23:40:17.292Z,19.50
2022-08-22T23:42:44.377Z,19.40
2022-08-22T23:45:11.570Z,19.20
2022-08-22T23:47:38.612Z,19.10
2022-08-22T23:50:06.630Z,19.10
2022-08-22T23:52:34.188Z,19.10
2022-08-22T23:55:01.209Z,19.10
2022-08-22T23:57:29.483Z,19.10
2022-08-22T23:59:57.759Z,19.10
